Terminal Aerodrome Forecast
Issued by NWS Bismarck, ND

Home | Current Version | Previous Version | Text Only | Print | Product List | Glossary On
Versions: 1 2 3 4 5 6 7 8 9 10 11 12 13 14 15 16
000
FTUS43 KBIS 201757 AAA
TAFISN
TAF AMD
KISN 201757Z 2018/2118 30030G40KT P6SM FEW250
     FM202000 31023G35KT P6SM FEW010 SCT035
     FM202300 32019G29KT P6SM FEW250
     FM211300 32009KT P6SM FEW250=

USA.gov is the U.S. government's official web portal to all federal, state and local government web resources and services.